Time;durP1;ratioP1;P1;durP2;ratioP2;P2;SDS_P1;SDS_P2;PMS_P1;PMS_P2;Temp;Humidity;BMP_temperature;BMP_pressure;BME280_temperature;BME280_humidity;BME280_pressure;Samples;Min_cycle;Max_cycle;Signal;HPM_P1;HPM_P2
2021/06/20 20:08:40;;;;;;;10.32;4.32;;;;;;;;;;5085207;23;20126;-67
2021/06/20 20:11:06;;;;;;;10.57;4.50;;;;;;;;;;4866295;29;20492;-74
2021/06/20 20:13:32;;;;;;;8.02;4.57;;;;;;;;;;4841080;29;20041;-69
2021/06/20 20:16:03;;;;;;;8.95;4.60;;;;;;;;;;4859039;29;20532;-72
2021/06/20 20:18:29;;;;;;;6.68;3.78;;;;;;;;;;4842353;29;20021;-68
2021/06/20 20:20:55;;;;;;;7.50;4.18;;;;;;;;;;4842744;29;20120;-68
2021/06/20 20:23:21;;;;;;;9.23;5.00;;;;;;;;;;4858651;29;20073;-66
2021/06/20 20:25:47;;;;;;;9.23;4.60;;;;;;;;;;4842503;29;20040;-69
2021/06/20 20:28:14;;;;;;;7.80;4.40;;;;;;;;;;4858995;29;20176;-73
2021/06/20 20:30:40;;;;;;;6.15;3.72;;;;;;;;;;4858814;29;20056;-67
2021/06/20 20:33:09;;;;;;;8.88;4.28;;;;;;;;;;4858663;29;20505;-67
2021/06/20 20:35:35;;;;;;;9.45;4.63;;;;;;;;;;4858455;29;20478;-69
2021/06/20 20:38:04;;;;;;;6.30;4.05;;;;;;;;;;4858572;29;20037;-68
2021/06/20 20:40:30;;;;;;;7.30;3.80;;;;;;;;;;4841405;29;20486;-66
2021/06/20 20:42:57;;;;;;;5.75;4.25;;;;;;;;;;4858937;29;20474;-66
2021/06/20 20:45:27;;;;;;;9.98;4.55;;;;;;;;;;4859012;29;20121;-68
2021/06/20 20:47:54;;;;;;;9.55;4.93;;;;;;;;;;4858999;29;20029;-66
2021/06/20 20:50:20;;;;;;;7.78;4.03;;;;;;;;;;4858627;29;20044;-64
2021/06/20 20:52:46;;;;;;;10.00;4.90;;;;;;;;;;4858651;29;20382;-68
2021/06/20 20:55:16;;;;;;;9.70;5.00;;;;;;;;;;4841752;29;20439;-66
2021/06/20 20:57:42;;;;;;;12.57;5.30;;;;;;;;;;4875394;29;20025;-65
2021/06/20 21:00:10;;;;;;;7.13;3.95;;;;;;;;;;4870058;29;20072;-66
2021/06/20 21:02:36;;;;;;;9.02;4.18;;;;;;;;;;4842404;29;20032;-67
2021/06/20 21:05:03;;;;;;;10.65;4.85;;;;;;;;;;4842287;29;20045;-67
2021/06/20 21:07:29;;;;;;;10.15;4.72;;;;;;;;;;4857811;29;20501;-66
2021/06/20 21:09:55;;;;;;;9.23;4.50;;;;;;;;;;4858066;29;20053;-64
2021/06/20 21:12:23;;;;;;;6.53;4.20;;;;;;;;;;4861168;29;20057;-66
2021/06/20 21:14:49;;;;;;;7.65;4.53;;;;;;;;;;4862958;29;20040;-66
2021/06/20 21:17:16;;;;;;;8.70;4.13;;;;;;;;;;4844207;29;20029;-65
2021/06/20 21:19:42;;;;;;;5.13;3.70;;;;;;;;;;4857841;29;20611;-66
2021/06/20 21:22:08;;;;;;;8.10;4.30;;;;;;;;;;4844474;29;20477;-67
2021/06/20 21:24:37;;;;;;;6.93;4.10;;;;;;;;;;4867952;29;20021;-65
2021/06/20 21:27:03;;;;;;;7.63;4.55;;;;;;;;;;4849738;29;20029;-69
2021/06/20 21:29:29;;;;;;;10.00;4.32;;;;;;;;;;4866614;29;20406;-68
2021/06/20 21:31:58;;;;;;;7.15;4.30;;;;;;;;;;4858226;29;20045;-71
2021/06/20 21:34:25;;;;;;;8.95;4.10;;;;;;;;;;4858624;29;20040;-69
2021/06/20 21:36:51;;;;;;;9.80;5.28;;;;;;;;;;4858256;29;20715;-66
2021/06/20 21:39:17;;;;;;;7.88;5.22;;;;;;;;;;4858492;29;20045;-66
2021/06/20 21:41:43;;;;;;;7.93;4.72;;;;;;;;;;4858454;29;20517;-69
2021/06/20 21:44:09;;;;;;;8.00;4.43;;;;;;;;;;4858554;29;20486;-66
2021/06/20 21:46:38;;;;;;;9.05;4.13;;;;;;;;;;4858978;29;20041;-66
2021/06/20 21:49:05;;;;;;;5.63;3.75;;;;;;;;;;4858592;29;20121;-66
2021/06/20 21:51:31;;;;;;;8.70;3.95;;;;;;;;;;4858549;29;20026;-65
2021/06/20 21:53:59;;;;;;;6.97;3.88;;;;;;;;;;4858619;29;20041;-65
2021/06/20 21:56:26;;;;;;;6.15;3.17;;;;;;;;;;4858736;29;20137;-64
2021/06/20 21:58:52;;;;;;;6.90;3.00;;;;;;;;;;4857866;29;20513;-69
2021/06/20 22:01:18;;;;;;;6.43;3.15;;;;;;;;;;4858316;29;20037;-68
2021/06/20 22:03:44;;;;;;;5.03;2.60;;;;;;;;;;4858474;29;20113;-68
2021/06/20 22:06:10;;;;;;;4.88;2.30;;;;;;;;;;4852326;29;20408;-68
2021/06/20 22:08:37;;;;;;;4.40;2.63;;;;;;;;;;4875466;29;20525;-67
2021/06/20 22:11:03;;;;;;;6.25;2.58;;;;;;;;;;4868088;29;20045;-65
2021/06/20 22:13:29;;;;;;;3.83;2.45;;;;;;;;;;4865920;29;20030;-66
2021/06/20 22:15:55;;;;;;;4.18;2.80;;;;;;;;;;4866426;29;20029;-66
2021/06/20 22:18:21;;;;;;;4.47;2.55;;;;;;;;;;4867419;29;20033;-67
2021/06/20 22:20:47;;;;;;;3.15;2.20;;;;;;;;;;4866018;29;20036;-66
2021/06/20 22:23:14;;;;;;;4.25;2.08;;;;;;;;;;4866792;29;20111;-66
2021/06/20 22:25:40;;;;;;;3.47;1.90;;;;;;;;;;4867293;29;20122;-68
2021/06/20 22:28:07;;;;;;;2.55;2.03;;;;;;;;;;4865730;29;20022;-65
2021/06/20 22:30:33;;;;;;;4.78;2.20;;;;;;;;;;4866736;29;20029;-68
2021/06/20 22:33:00;;;;;;;3.50;2.58;;;;;;;;;;4860158;29;20026;-67
2021/06/20 22:35:26;;;;;;;6.30;4.45;;;;;;;;;;4859306;29;20038;-77
2021/06/20 22:37:52;;;;;;;4.63;3.50;;;;;;;;;;4861469;29;20026;-67
2021/06/20 22:40:19;;;;;;;4.03;3.20;;;;;;;;;;4861811;29;20060;-65
2021/06/20 22:42:45;;;;;;;3.58;2.40;;;;;;;;;;4861564;29;20034;-66
2021/06/20 22:45:12;;;;;;;6.22;2.15;;;;;;;;;;4861452;29;20033;-67
2021/06/20 22:47:38;;;;;;;3.47;1.90;;;;;;;;;;4861548;29;20065;-67
2021/06/20 22:50:05;;;;;;;3.50;2.00;;;;;;;;;;4861650;29;20455;-67
2021/06/20 22:52:31;;;;;;;6.32;2.85;;;;;;;;;;4861519;29;20057;-66
2021/06/20 22:54:57;;;;;;;3.47;2.58;;;;;;;;;;4861609;29;20037;-66
2021/06/20 22:57:24;;;;;;;4.90;2.97;;;;;;;;;;4861481;29;20033;-68
2021/06/20 22:59:51;;;;;;;5.95;3.00;;;;;;;;;;4861136;29;20381;-66
2021/06/20 23:02:17;;;;;;;7.70;3.85;;;;;;;;;;4861347;29;20094;-66
2021/06/20 23:04:43;;;;;;;7.32;3.97;;;;;;;;;;4861488;29;20033;-67
2021/06/20 23:07:09;;;;;;;9.10;4.68;;;;;;;;;;4861204;29;20100;-66
2021/06/20 23:09:35;;;;;;;12.15;5.80;;;;;;;;;;4861392;29;20049;-66
2021/06/20 23:12:01;;;;;;;8.75;2.60;;;;;;;;;;4861121;29;20041;-66
2021/06/20 23:14:27;;;;;;;6.35;3.80;;;;;;;;;;4861048;29;20037;-69
2021/06/20 23:16:57;;;;;;;9.80;4.80;;;;;;;;;;4861141;29;20041;-66
2021/06/20 23:19:24;;;;;;;7.95;4.05;;;;;;;;;;4861190;29;20036;-68
2021/06/20 23:21:50;;;;;;;6.13;3.72;;;;;;;;;;4861155;29;20041;-70
2021/06/20 23:24:16;;;;;;;8.18;4.03;;;;;;;;;;4861203;29;20025;-68
2021/06/20 23:26:42;;;;;;;3.67;2.42;;;;;;;;;;4861109;29;20036;-70
2021/06/20 23:29:08;;;;;;;6.72;3.03;;;;;;;;;;4861188;29;20033;-69
2021/06/20 23:31:34;;;;;;;6.88;3.20;;;;;;;;;;4861001;29;20045;-68
2021/06/20 23:34:01;;;;;;;5.15;3.20;;;;;;;;;;4861057;29;20026;-66
2021/06/20 23:36:27;;;;;;;4.60;2.60;;;;;;;;;;4860910;29;20078;-66
2021/06/20 23:38:53;;;;;;;5.15;2.45;;;;;;;;;;4860632;29;20041;-67
2021/06/20 23:41:19;;;;;;;5.70;2.53;;;;;;;;;;4860969;29;20029;-66
2021/06/20 23:43:45;;;;;;;4.93;2.50;;;;;;;;;;4860646;29;20539;-67
2021/06/20 23:46:11;;;;;;;4.60;2.70;;;;;;;;;;4860277;29;20040;-67
2021/06/20 23:48:37;;;;;;;5.13;2.60;;;;;;;;;;4860552;29;20033;-69
2021/06/20 23:51:03;;;;;;;4.40;2.78;;;;;;;;;;4860808;29;20112;-70
2021/06/20 23:53:29;;;;;;;7.85;4.75;;;;;;;;;;4860646;29;20029;-66
2021/06/20 23:55:58;;;;;;;5.72;4.10;;;;;;;;;;4843529;29;20622;-67
2021/06/20 23:58:24;;;;;;;5.07;2.42;;;;;;;;;;4859745;29;20389;-68
